sensor_id;sensor_type;location;lat;lon;timestamp;pressure;altitude;pressure_sealevel;temperature;humidity
35224;BME280;21367;51.930;8.112;2022-09-16T00:02:15;100288.53;;;12.69;98.81
35224;BME280;21367;51.930;8.112;2022-09-16T00:07:21;100290.03;;;12.61;99.26
35224;BME280;21367;51.930;8.112;2022-09-16T00:12:25;100275.81;;;12.43;99.18
35224;BME280;21367;51.930;8.112;2022-09-16T00:17:29;100285.09;;;12.37;100.00
35224;BME280;21367;51.930;8.112;2022-09-16T00:22:37;100274.06;;;12.42;100.00
35224;BME280;21367;51.930;8.112;2022-09-16T00:27:40;100274.91;;;12.41;100.00
35224;BME280;21367;51.930;8.112;2022-09-16T00:32:44;100274.00;;;12.39;100.00
35224;BME280;21367;51.930;8.112;2022-09-16T00:37:51;100276.03;;;12.21;100.00
35224;BME280;21367;51.930;8.112;2022-09-16T00:42:54;100268.31;;;12.21;100.00
35224;BME280;21367;51.930;8.112;2022-09-16T00:48:02;100274.31;;;12.20;100.00
35224;BME280;21367;51.930;8.112;2022-09-16T00:53:13;100288.16;;;12.23;100.00
35224;BME280;21367;51.930;8.112;2022-09-16T00:58:24;100278.97;;;12.33;100.00
35224;BME280;21367;51.930;8.112;2022-09-16T01:03:30;100276.22;;;12.27;100.00
35224;BME280;21367;51.930;8.112;2022-09-16T01:08:38;100279.50;;;12.21;100.00
35224;BME280;21367;51.930;8.112;2022-09-16T01:13:43;100276.81;;;12.17;100.00
35224;BME280;21367;51.930;8.112;2022-09-16T01:18:53;100279.50;;;12.21;100.00
35224;BME280;21367;51.930;8.112;2022-09-16T01:24:27;100268.66;;;12.33;100.00
35224;BME280;21367;51.930;8.112;2022-09-16T01:35:14;100279.72;;;11.99;100.00
35224;BME280;21367;51.930;8.112;2022-09-16T01:40:26;100269.09;;;12.18;100.00
35224;BME280;21367;51.930;8.112;2022-09-16T01:45:37;100275.28;;;12.23;100.00
35224;BME280;21367;51.930;8.112;2022-09-16T01:50:47;100268.16;;;12.15;100.00
35224;BME280;21367;51.930;8.112;2022-09-16T01:55:59;100275.22;;;12.22;100.00
35224;BME280;21367;51.930;8.112;2022-09-16T02:01:10;100269.81;;;12.13;100.00
35224;BME280;21367;51.930;8.112;2022-09-16T02:06:22;100269.59;;;12.05;100.00
35224;BME280;21367;51.930;8.112;2022-09-16T02:11:27;100267.78;;;12.02;100.00
35224;BME280;21367;51.930;8.112;2022-09-16T02:16:35;100267.34;;;11.87;100.00
35224;BME280;21367;51.930;8.112;2022-09-16T02:21:43;100256.72;;;11.78;100.00
35224;BME280;21367;51.930;8.112;2022-09-16T02:26:53;100259.94;;;11.98;100.00
35224;BME280;21367;51.930;8.112;2022-09-16T02:32:01;100271.13;;;11.98;100.00
35224;BME280;21367;51.930;8.112;2022-09-16T02:37:14;100256.53;;;11.99;100.00
35224;BME280;21367;51.930;8.112;2022-09-16T02:42:19;100269.03;;;11.87;100.00
35224;BME280;21367;51.930;8.112;2022-09-16T02:47:29;100263.56;;;11.76;100.00
35224;BME280;21367;51.930;8.112;2022-09-16T02:52:39;100261.88;;;11.78;100.00
35224;BME280;21367;51.930;8.112;2022-09-16T02:57:46;100264.16;;;11.96;100.00
35224;BME280;21367;51.930;8.112;2022-09-16T03:02:52;100267.41;;;11.89;100.00
35224;BME280;21367;51.930;8.112;2022-09-16T03:07:59;100276.13;;;11.94;100.00
35224;BME280;21367;51.930;8.112;2022-09-16T03:13:10;100265.38;;;12.07;100.00
35224;BME280;21367;51.930;8.112;2022-09-16T03:18:21;100257.31;;;11.96;100.00
35224;BME280;21367;51.930;8.112;2022-09-16T03:23:42;100262.91;;;11.83;100.00
35224;BME280;21367;51.930;8.112;2022-09-16T03:28:56;100253.75;;;11.64;100.00
35224;BME280;21367;51.930;8.112;2022-09-16T03:34:05;100244.38;;;11.66;100.00
35224;BME280;21367;51.930;8.112;2022-09-16T03:39:15;100247.66;;;11.61;100.00
35224;BME280;21367;51.930;8.112;2022-09-16T03:44:18;100251.88;;;11.58;100.00
35224;BME280;21367;51.930;8.112;2022-09-16T03:49:22;100255.28;;;11.57;100.00
35224;BME280;21367;51.930;8.112;2022-09-16T03:54:28;100249.66;;;11.71;100.00
35224;BME280;21367;51.930;8.112;2022-09-16T03:59:32;100249.47;;;11.65;100.00
35224;BME280;21367;51.930;8.112;2022-09-16T04:04:36;100244.59;;;11.74;100.00
35224;BME280;21367;51.930;8.112;2022-09-16T04:09:43;100247.41;;;11.53;100.00
35224;BME280;21367;51.930;8.112;2022-09-16T04:14:46;100246.25;;;11.72;100.00
35224;BME280;21367;51.930;8.112;2022-09-16T04:19:50;100242.00;;;11.72;100.00
35224;BME280;21367;51.930;8.112;2022-09-16T04:24:57;100236.13;;;11.49;100.00
35224;BME280;21367;51.930;8.112;2022-09-16T04:30:00;100233.63;;;11.51;100.00
35224;BME280;21367;51.930;8.112;2022-09-16T04:35:05;100237.06;;;11.51;100.00
35224;BME280;21367;51.930;8.112;2022-09-16T04:40:12;100236.88;;;11.45;100.00
35224;BME280;21367;51.930;8.112;2022-09-16T04:45:16;100247.28;;;11.50;100.00
35224;BME280;21367;51.930;8.112;2022-09-16T04:50:20;100234.69;;;11.30;100.00
35224;BME280;21367;51.930;8.112;2022-09-16T04:55:26;100235.16;;;11.44;100.00
35224;BME280;21367;51.930;8.112;2022-09-16T05:00:31;100237.72;;;11.17;100.00
35224;BME280;21367;51.930;8.112;2022-09-16T05:05:34;100240.03;;;11.37;100.00
35224;BME280;21367;51.930;8.112;2022-09-16T05:10:41;100231.84;;;11.50;100.00
35224;BME280;21367;51.930;8.112;2022-09-16T05:15:44;100244.09;;;11.28;100.00
35224;BME280;21367;51.930;8.112;2022-09-16T05:20:48;100243.38;;;11.34;100.00
35224;BME280;21367;51.930;8.112;2022-09-16T05:25:54;100241.31;;;11.22;100.00
35224;BME280;21367;51.930;8.112;2022-09-16T05:31:06;100243.63;;;11.15;100.00
35224;BME280;21367;51.930;8.112;2022-09-16T05:36:11;100253.47;;;11.28;100.00
35224;BME280;21367;51.930;8.112;2022-09-16T05:41:18;100250.38;;;11.38;100.00
35224;BME280;21367;51.930;8.112;2022-09-16T05:46:22;100245.38;;;11.71;100.00
35224;BME280;21367;51.930;8.112;2022-09-16T05:51:26;100248.03;;;12.01;100.00
35224;BME280;21367;51.930;8.112;2022-09-16T05:56:33;100247.53;;;12.15;100.00
35224;BME280;21367;51.930;8.112;2022-09-16T06:01:38;100256.00;;;12.11;100.00
35224;BME280;21367;51.930;8.112;2022-09-16T06:06:43;100250.47;;;12.27;100.00
35224;BME280;21367;51.930;8.112;2022-09-16T06:11:51;100258.06;;;12.22;100.00
35224;BME280;21367;51.930;8.112;2022-09-16T06:16:57;100248.91;;;12.34;100.00
35224;BME280;21367;51.930;8.112;2022-09-16T06:22:01;100255.66;;;12.29;100.00
35224;BME280;21367;51.930;8.112;2022-09-16T06:27:07;100260.91;;;12.32;100.00
35224;BME280;21367;51.930;8.112;2022-09-16T06:32:11;100259.41;;;12.40;100.00
35224;BME280;21367;51.930;8.112;2022-09-16T06:37:15;100258.25;;;12.62;99.02
35224;BME280;21367;51.930;8.112;2022-09-16T06:42:22;100249.84;;;12.36;99.27
35224;BME280;21367;51.930;8.112;2022-09-16T06:47:27;100256.72;;;12.05;100.00
35224;BME280;21367;51.930;8.112;2022-09-16T06:52:33;100254.91;;;12.64;98.08
35224;BME280;21367;51.930;8.112;2022-09-16T06:57:40;100246.03;;;12.88;95.01
35224;BME280;21367;51.930;8.112;2022-09-16T07:02:43;100255.22;;;13.11;92.42
35224;BME280;21367;51.930;8.112;2022-09-16T07:07:47;100253.53;;;13.12;92.99
35224;BME280;21367;51.930;8.112;2022-09-16T07:12:55;100259.53;;;13.11;92.26
35224;BME280;21367;51.930;8.112;2022-09-16T07:17:58;100254.34;;;13.46;90.59
35224;BME280;21367;51.930;8.112;2022-09-16T07:23:02;100258.25;;;13.66;89.76
35224;BME280;21367;51.930;8.112;2022-09-16T07:28:08;100260.50;;;13.51;89.31
35224;BME280;21367;51.930;8.112;2022-09-16T07:33:12;100263.03;;;12.80;93.30
35224;BME280;21367;51.930;8.112;2022-09-16T07:38:15;100263.34;;;12.59;94.55
35224;BME280;21367;51.930;8.112;2022-09-16T07:43:22;100271.56;;;12.77;94.28
35224;BME280;21367;51.930;8.112;2022-09-16T07:48:28;100273.84;;;12.98;92.38
35224;BME280;21367;51.930;8.112;2022-09-16T07:53:32;100276.22;;;13.25;91.70
35224;BME280;21367;51.930;8.112;2022-09-16T07:58:40;100279.72;;;13.27;91.08
35224;BME280;21367;51.930;8.112;2022-09-16T08:03:44;100282.03;;;13.16;90.96
35224;BME280;21367;51.930;8.112;2022-09-16T08:08:50;100282.28;;;13.26;89.64
35224;BME280;21367;51.930;8.112;2022-09-16T08:13:57;100291.31;;;13.10;89.81
35224;BME280;21367;51.930;8.112;2022-09-16T08:19:02;100278.88;;;13.27;87.99
35224;BME280;21367;51.930;8.112;2022-09-16T08:24:06;100284.41;;;13.42;86.04
35224;BME280;21367;51.930;8.112;2022-09-16T08:29:12;100284.00;;;13.63;83.93
35224;BME280;21367;51.930;8.112;2022-09-16T08:34:16;100280.63;;;13.65;82.47
35224;BME280;21367;51.930;8.112;2022-09-16T08:39:19;100276.53;;;13.75;82.61
35224;BME280;21367;51.930;8.112;2022-09-16T08:44:33;100277.13;;;14.01;79.28
35224;BME280;21367;51.930;8.112;2022-09-16T08:49:43;100282.28;;;14.01;76.53
35224;BME280;21367;51.930;8.112;2022-09-16T08:54:50;100294.13;;;14.32;76.37
35224;BME280;21367;51.930;8.112;2022-09-16T09:00:03;100289.44;;;14.57;75.28
35224;BME280;21367;51.930;8.112;2022-09-16T09:05:14;100290.81;;;14.85;74.44
35224;BME280;21367;51.930;8.112;2022-09-16T09:10:24;100287.19;;;15.25;72.14
35224;BME280;21367;51.930;8.112;2022-09-16T09:15:38;100295.16;;;15.36;69.67
35224;BME280;21367;51.930;8.112;2022-09-16T09:20:50;100292.38;;;15.24;68.34
35224;BME280;21367;51.930;8.112;2022-09-16T09:25:58;100280.16;;;15.73;66.92
35224;BME280;21367;51.930;8.112;2022-09-16T09:31:14;100277.38;;;16.22;62.58
35224;BME280;21367;51.930;8.112;2022-09-16T09:36:30;100269.88;;;16.46;60.71
35224;BME280;21367;51.930;8.112;2022-09-16T09:41:40;100267.28;;;16.46;60.07
35224;BME280;21367;51.930;8.112;2022-09-16T09:46:52;100271.88;;;16.72;61.10
35224;BME280;21367;51.930;8.112;2022-09-16T09:51:59;100261.81;;;17.04;60.42
35224;BME280;21367;51.930;8.112;2022-09-16T09:57:09;100263.94;;;16.56;59.52
35224;BME280;21367;51.930;8.112;2022-09-16T10:02:18;100250.34;;;16.79;60.55
35224;BME280;21367;51.930;8.112;2022-09-16T10:07:24;100256.72;;;17.15;57.86
35224;BME280;21367;51.930;8.112;2022-09-16T10:12:30;100259.31;;;17.15;56.20
35224;BME280;21367;51.930;8.112;2022-09-16T10:17:37;100251.66;;;17.30;58.77
35224;BME280;21367;51.930;8.112;2022-09-16T10:22:51;100248.78;;;16.96;55.97
35224;BME280;21367;51.930;8.112;2022-09-16T10:27:58;100246.50;;;17.39;56.30
35224;BME280;21367;51.930;8.112;2022-09-16T10:33:11;100248.22;;;17.39;56.45
35224;BME280;21367;51.930;8.112;2022-09-16T10:38:18;100237.72;;;17.22;57.32
35224;BME280;21367;51.930;8.112;2022-09-16T10:43:25;100237.09;;;17.56;56.35
35224;BME280;21367;51.930;8.112;2022-09-16T10:48:34;100225.72;;;17.41;54.99
35224;BME280;21367;51.930;8.112;2022-09-16T10:53:39;100227.34;;;17.22;55.88
35224;BME280;21367;51.930;8.112;2022-09-16T10:58:47;100217.72;;;17.08;56.68
35224;BME280;21367;51.930;8.112;2022-09-16T11:09:52;100214.72;;;17.80;54.76
35224;BME280;21367;51.930;8.112;2022-09-16T11:15:03;100212.13;;;17.86;53.07
35224;BME280;21367;51.930;8.112;2022-09-16T11:20:35;100215.69;;;18.07;52.31
35224;BME280;21367;51.930;8.112;2022-09-16T11:25:47;100205.94;;;17.58;54.50
35224;BME280;21367;51.930;8.112;2022-09-16T11:31:00;100213.78;;;17.75;54.11
35224;BME280;21367;51.930;8.112;2022-09-16T11:36:20;100206.28;;;18.53;53.04
35224;BME280;21367;51.930;8.112;2022-09-16T11:41:32;100214.75;;;17.88;54.01
35224;BME280;21367;51.930;8.112;2022-09-16T11:46:42;100216.59;;;18.15;52.91
35224;BME280;21367;51.930;8.112;2022-09-16T11:52:00;100203.66;;;19.47;50.65
35224;BME280;21367;51.930;8.112;2022-09-16T11:57:08;100206.28;;;19.37;51.63
35224;BME280;21367;51.930;8.112;2022-09-16T12:02:18;100207.59;;;20.53;43.57
35224;BME280;21367;51.930;8.112;2022-09-16T12:07:33;100211.28;;;20.08;45.38
35224;BME280;21367;51.930;8.112;2022-09-16T12:12:41;100217.53;;;19.62;44.79
35224;BME280;21367;51.930;8.112;2022-09-16T12:17:53;100249.63;;;16.98;56.31
35224;BME280;21367;51.930;8.112;2022-09-16T12:23:04;100255.16;;;15.19;66.12
35224;BME280;21367;51.930;8.112;2022-09-16T12:28:14;100228.59;;;14.30;72.48
35224;BME280;21367;51.930;8.112;2022-09-16T12:33:23;100210.25;;;16.49;65.47
35224;BME280;21367;51.930;8.112;2022-09-16T12:38:31;100205.47;;;19.03;60.37
35224;BME280;21367;51.930;8.112;2022-09-16T12:49:32;100192.44;;;20.97;50.70
35224;BME280;21367;51.930;8.112;2022-09-16T12:55:01;100188.91;;;21.02;51.54
35224;BME280;21367;51.930;8.112;2022-09-16T13:00:19;100189.53;;;20.12;51.57
35224;BME280;21367;51.930;8.112;2022-09-16T13:05:27;100175.97;;;20.90;47.97
35224;BME280;21367;51.930;8.112;2022-09-16T13:10:36;100176.88;;;20.83;46.87
35224;BME280;21367;51.930;8.112;2022-09-16T13:15:41;100170.78;;;21.72;42.28
35224;BME280;21367;51.930;8.112;2022-09-16T13:20:48;100158.28;;;21.17;43.15
35224;BME280;21367;51.930;8.112;2022-09-16T13:25:59;100162.84;;;20.95;43.33
35224;BME280;21367;51.930;8.112;2022-09-16T13:31:15;100157.22;;;21.33;45.20
35224;BME280;21367;51.930;8.112;2022-09-16T13:36:30;100162.50;;;22.04;42.57
35224;BME280;21367;51.930;8.112;2022-09-16T13:41:39;100158.16;;;22.63;39.35
35224;BME280;21367;51.930;8.112;2022-09-16T13:46:43;100154.53;;;22.72;40.68
35224;BME280;21367;51.930;8.112;2022-09-16T13:51:48;100164.00;;;21.54;43.01
35224;BME280;21367;51.930;8.112;2022-09-16T14:08:17;100157.25;;;20.28;45.12
35224;BME280;21367;51.930;8.112;2022-09-16T14:13:34;100162.91;;;19.24;49.20
35224;BME280;21367;51.930;8.112;2022-09-16T14:18:50;100157.84;;;20.72;47.68
35224;BME280;21367;51.930;8.112;2022-09-16T14:24:06;100150.13;;;20.56;44.88
35224;BME280;21367;51.930;8.112;2022-09-16T14:29:10;100137.41;;;22.50;41.75
35224;BME280;21367;51.930;8.112;2022-09-16T14:34:22;100144.16;;;22.06;40.34
35224;BME280;21367;51.930;8.112;2022-09-16T14:39:29;100139.47;;;23.31;39.58
35224;BME280;21367;51.930;8.112;2022-09-16T14:44:35;100143.16;;;22.73;40.36
35224;BME280;21367;51.930;8.112;2022-09-16T14:49:45;100143.63;;;22.44;40.87
35224;BME280;21367;51.930;8.112;2022-09-16T14:54:50;100151.22;;;20.22;44.62
